createdAt,value
2018-03-23T00:00:10.873Z,54.47
2018-03-23T00:02:44.370Z,49.13
2018-03-23T00:05:18.057Z,56.67
2018-03-23T00:07:51.650Z,47.77
2018-03-23T00:10:25.266Z,58.83
2018-03-23T00:12:58.830Z,59.90
2018-03-23T00:15:32.365Z,70.47
2018-03-23T00:18:06.070Z,71.07
2018-03-23T00:20:39.720Z,61.87
2018-03-23T00:23:13.325Z,63.10
2018-03-23T00:25:46.949Z,61.53
2018-03-23T00:28:20.493Z,60.77
2018-03-23T00:30:54.163Z,71.63
2018-03-23T00:33:27.798Z,74.77
2018-03-23T00:36:01.330Z,78.43
2018-03-23T00:38:35.057Z,103.67
2018-03-23T00:41:08.678Z,82.73
2018-03-23T00:43:42.266Z,76.40
2018-03-23T00:46:15.909Z,88.03
2018-03-23T00:48:49.567Z,77.43
2018-03-23T00:51:23.289Z,90.80
2018-03-23T00:53:56.969Z,91.13
2018-03-23T00:56:30.633Z,102.50
2018-03-23T00:59:04.135Z,92.50
2018-03-23T01:01:37.792Z,91.53
2018-03-23T01:04:11.409Z,89.03
2018-03-23T01:06:45.113Z,83.20
2018-03-23T01:09:18.690Z,90.80
2018-03-23T01:11:52.447Z,88.63
2018-03-23T01:14:26.006Z,101.63
2018-03-23T01:16:59.601Z,94.43
2018-03-23T01:19:33.166Z,85.90
2018-03-23T01:22:06.779Z,94.90
2018-03-23T01:24:40.326Z,96.97
2018-03-23T01:27:13.907Z,92.83
2018-03-23T01:29:47.403Z,113.73
2018-03-23T01:32:21.140Z,113.30
2018-03-23T01:34:54.714Z,145.67
2018-03-23T01:37:28.370Z,135.57
2018-03-23T01:40:02.052Z,199.67
2018-03-23T01:42:35.649Z,153.00
2018-03-23T01:45:09.150Z,155.30
2018-03-23T01:47:42.710Z,227.03
2018-03-23T01:50:16.604Z,215.30
2018-03-23T01:52:50.169Z,229.13
2018-03-23T01:55:23.732Z,344.97
2018-03-23T01:57:57.317Z,287.60
2018-03-23T02:00:30.882Z,295.23
2018-03-23T02:03:04.505Z,375.47
2018-03-23T02:05:38.089Z,264.43
2018-03-23T02:08:11.609Z,612.20
2018-03-23T02:10:45.265Z,315.00
2018-03-23T02:13:18.990Z,424.97
2018-03-23T02:15:52.666Z,533.67
2018-03-23T02:18:34.115Z,437.47
2018-03-23T02:21:07.699Z,487.67
2018-03-23T02:23:41.300Z,405.70
2018-03-23T02:26:14.929Z,418.73
2018-03-23T02:28:48.565Z,456.90
2018-03-23T02:31:22.154Z,401.03
2018-03-23T02:33:55.832Z,399.00
2018-03-23T02:36:29.493Z,447.80
2018-03-23T02:39:03.127Z,363.07
2018-03-23T02:41:36.789Z,423.10
2018-03-23T02:44:10.442Z,480.47
2018-03-23T02:46:44.120Z,515.13
2018-03-23T02:49:17.630Z,582.40
2018-03-23T02:51:51.210Z,583.90
2018-03-23T02:54:24.755Z,604.80
2018-03-23T02:56:58.416Z,824.57
2018-03-23T02:59:31.999Z,662.07
2018-03-23T03:02:05.609Z,714.87
2018-03-23T03:04:39.178Z,1016.03
2018-03-23T03:07:12.846Z,787.07
2018-03-23T03:09:46.546Z,802.80
2018-03-23T03:12:20.576Z,812.33
2018-03-23T03:14:54.216Z,821.17
2018-03-23T03:17:27.770Z,813.53
2018-03-23T03:20:01.470Z,878.17
2018-03-23T03:22:35.130Z,850.53
2018-03-23T03:25:08.671Z,930.60
2018-03-23T03:27:42.271Z,693.87
2018-03-23T03:30:16.196Z,622.90
2018-03-23T03:32:49.762Z,805.57
2018-03-23T03:35:23.526Z,644.93
2018-03-23T03:37:57.184Z,733.73
2018-03-23T03:40:30.818Z,623.20
2018-03-23T03:43:04.389Z,536.50
2018-03-23T03:45:38.067Z,615.20
2018-03-23T03:48:11.545Z,664.67
2018-03-23T03:50:45.190Z,677.40
2018-03-23T03:53:19.121Z,757.80
2018-03-23T03:55:52.670Z,741.63
2018-03-23T03:58:26.194Z,557.43
2018-03-23T04:00:59.716Z,828.47
2018-03-23T04:03:33.251Z,816.00
2018-03-23T04:06:06.806Z,902.77
2018-03-23T04:08:40.400Z,888.50
2018-03-23T04:11:13.933Z,919.70
2018-03-23T04:13:47.740Z,593.57
2018-03-23T04:16:21.395Z,837.73
2018-03-23T04:18:54.900Z,560.13
2018-03-23T04:21:28.598Z,645.70
2018-03-23T04:24:02.210Z,515.40
2018-03-23T04:26:35.768Z,573.53
2018-03-23T04:29:09.487Z,385.93
2018-03-23T04:31:43.018Z,528.90
2018-03-23T04:34:16.634Z,444.07
2018-03-23T04:36:50.199Z,297.90
2018-03-23T04:39:23.781Z,274.83
2018-03-23T04:41:57.409Z,229.40
2018-03-23T04:44:31.117Z,256.10
2018-03-23T04:47:04.639Z,263.20
2018-03-23T04:49:38.169Z,272.10
2018-03-23T04:52:11.817Z,371.30
2018-03-23T04:54:45.425Z,437.30
2018-03-23T04:57:18.985Z,352.40
2018-03-23T04:59:52.510Z,308.13
2018-03-23T05:02:26.106Z,218.57
2018-03-23T05:04:59.664Z,166.60
2018-03-23T05:07:33.294Z,210.03
2018-03-23T05:10:06.942Z,143.53
2018-03-23T05:12:40.629Z,145.07
2018-03-23T05:15:14.221Z,126.57
2018-03-23T05:17:47.754Z,129.53
2018-03-23T05:20:21.384Z,104.07
2018-03-23T05:22:54.993Z,111.67
2018-03-23T05:25:28.614Z,116.50
2018-03-23T05:28:02.397Z,105.53
2018-03-23T05:30:35.997Z,116.70
2018-03-23T05:33:09.750Z,130.67
2018-03-23T05:35:43.310Z,126.60
2018-03-23T05:38:16.952Z,127.07
2018-03-23T05:40:50.458Z,126.93
2018-03-23T05:43:24.138Z,119.00
2018-03-23T05:45:57.719Z,132.67
2018-03-23T05:48:31.321Z,153.03
2018-03-23T05:51:05.689Z,113.07
2018-03-23T05:53:39.159Z,107.30
2018-03-23T05:56:12.642Z,120.63
2018-03-23T05:58:46.214Z,107.33
2018-03-23T06:01:19.868Z,106.83
2018-03-23T06:03:53.501Z,104.80
2018-03-23T06:06:27.066Z,98.77
2018-03-23T06:09:00.678Z,101.07
2018-03-23T06:11:34.376Z,88.03
2018-03-23T06:14:07.952Z,86.47
2018-03-23T06:16:41.639Z,96.30
2018-03-23T06:19:15.461Z,96.53
2018-03-23T06:21:49.270Z,112.63
2018-03-23T06:24:23.154Z,99.77
2018-03-23T06:26:56.809Z,91.73
2018-03-23T06:29:30.454Z,91.33
2018-03-23T06:32:04.065Z,95.70
2018-03-23T06:34:37.737Z,82.03
2018-03-23T06:37:11.330Z,77.00
2018-03-23T06:39:45.045Z,70.67
2018-03-23T06:42:18.573Z,80.80
2018-03-23T06:44:52.250Z,73.83
2018-03-23T06:47:25.992Z,70.83
2018-03-23T06:49:59.658Z,69.03
2018-03-23T06:52:33.458Z,64.67
2018-03-23T06:55:07.066Z,76.37
2018-03-23T06:57:40.725Z,70.47
2018-03-23T07:00:14.399Z,66.47
2018-03-23T07:02:48.170Z,66.70
2018-03-23T07:05:21.878Z,75.07
2018-03-23T07:07:55.477Z,71.90
2018-03-23T07:10:29.085Z,66.77
2018-03-23T07:13:02.874Z,57.97
2018-03-23T07:15:36.652Z,57.20
2018-03-23T07:18:10.474Z,59.53
2018-03-23T07:20:44.097Z,62.20
2018-03-23T07:23:17.958Z,61.23
2018-03-23T07:25:51.553Z,58.73
2018-03-23T07:28:25.229Z,57.67
2018-03-23T07:30:58.747Z,62.00
2018-03-23T07:33:32.242Z,59.73
2018-03-23T07:36:14.459Z,54.83
2018-03-23T07:38:47.998Z,66.77
2018-03-23T07:41:21.733Z,60.60
2018-03-23T07:43:55.302Z,74.13
2018-03-23T07:46:28.897Z,50.87
2018-03-23T07:49:02.537Z,51.23
2018-03-23T07:51:36.094Z,62.07
2018-03-23T07:54:09.697Z,74.80
2018-03-23T07:56:43.361Z,54.87
2018-03-23T07:59:17.053Z,112.50
2018-03-23T08:01:50.558Z,44.83
2018-03-23T08:04:24.237Z,51.83
2018-03-23T08:06:57.828Z,46.73
2018-03-23T08:09:31.320Z,42.37
2018-03-23T08:12:05.097Z,48.67
2018-03-23T08:14:38.644Z,49.97
2018-03-23T08:17:12.359Z,43.90
2018-03-23T08:19:45.909Z,55.50
2018-03-23T08:22:19.566Z,49.20
2018-03-23T08:24:53.205Z,43.57
2018-03-23T08:27:26.774Z,46.50
2018-03-23T08:30:00.502Z,44.80
2018-03-23T08:32:34.169Z,47.53
2018-03-23T08:35:07.695Z,41.63
2018-03-23T08:37:41.301Z,40.93
2018-03-23T08:40:14.869Z,41.43
2018-03-23T08:42:48.425Z,45.37
2018-03-23T08:45:22.093Z,49.53
2018-03-23T08:47:55.653Z,44.47
2018-03-23T08:50:29.193Z,46.27
2018-03-23T08:53:02.791Z,39.17
2018-03-23T08:55:36.446Z,45.37
2018-03-23T08:58:10.089Z,41.90
2018-03-23T09:00:43.770Z,39.10
2018-03-23T09:03:17.449Z,47.10
2018-03-23T09:05:51.182Z,38.83
2018-03-23T09:08:24.813Z,41.63
2018-03-23T09:10:58.533Z,38.57
2018-03-23T09:13:32.142Z,38.37
2018-03-23T09:16:05.662Z,40.67
2018-03-23T09:18:39.324Z,29.20
2018-03-23T09:21:12.954Z,36.27
2018-03-23T09:23:46.606Z,35.17
2018-03-23T09:26:20.149Z,32.63
2018-03-23T09:28:53.798Z,37.37
2018-03-23T09:31:27.590Z,28.20
2018-03-23T09:34:01.217Z,29.43
2018-03-23T09:36:34.862Z,25.10
2018-03-23T09:39:08.518Z,27.73
2018-03-23T09:41:42.934Z,25.63
2018-03-23T09:44:16.481Z,19.03
2018-03-23T09:46:50.013Z,21.20
2018-03-23T09:49:23.802Z,26.33
2018-03-23T09:51:57.582Z,26.97
2018-03-23T09:54:31.172Z,23.87
2018-03-23T10:00:03.699Z,24.40
2018-03-23T10:02:37.475Z,22.73
2018-03-23T10:05:11.130Z,20.87
2018-03-23T10:07:44.737Z,28.43
2018-03-23T10:10:18.418Z,24.83
2018-03-23T10:12:52.277Z,28.97
2018-03-23T10:15:26.040Z,32.73
2018-03-23T10:17:59.722Z,30.50
2018-03-23T10:20:33.275Z,33.37
2018-03-23T10:23:06.931Z,38.90
2018-03-23T10:25:40.539Z,32.80
2018-03-23T10:28:14.424Z,31.97
2018-03-23T10:30:48.299Z,34.90
2018-03-23T10:33:22.079Z,36.97
2018-03-23T10:35:55.663Z,37.17
2018-03-23T10:38:29.519Z,34.23
2018-03-23T10:41:03.198Z,31.83
2018-03-23T10:43:36.926Z,38.37
2018-03-23T10:46:10.508Z,33.43
2018-03-23T10:48:44.196Z,37.73
2018-03-23T10:51:17.831Z,35.03
2018-03-23T10:53:51.515Z,44.10
2018-03-23T10:56:25.216Z,38.93
2018-03-23T10:58:58.893Z,37.87
2018-03-23T11:01:32.755Z,37.30
2018-03-23T11:04:06.374Z,34.80
2018-03-23T11:06:40.402Z,30.63
2018-03-23T11:09:14.127Z,30.50
2018-03-23T11:11:47.842Z,30.20
2018-03-23T11:14:21.730Z,30.67
2018-03-23T11:16:55.262Z,28.83
2018-03-23T11:19:29.050Z,34.23
2018-03-23T11:22:02.563Z,26.77
2018-03-23T11:24:36.486Z,31.70
2018-03-23T11:27:10.236Z,29.20
2018-03-23T11:29:43.958Z,27.30
2018-03-23T11:32:17.736Z,35.47
2018-03-23T11:34:51.410Z,31.60
2018-03-23T11:37:24.933Z,28.43
2018-03-23T11:39:58.611Z,25.03
2018-03-23T11:42:32.270Z,23.73
2018-03-23T11:45:05.859Z,26.37
2018-03-23T11:47:39.555Z,23.80
2018-03-23T11:50:13.171Z,29.57
2018-03-23T11:52:47.031Z,22.40
2018-03-23T11:55:20.724Z,25.77
2018-03-23T11:57:54.607Z,24.00
2018-03-23T12:00:28.242Z,24.13
2018-03-23T12:03:01.876Z,25.53
2018-03-23T12:05:35.547Z,22.83
2018-03-23T12:08:09.167Z,22.07
2018-03-23T12:10:42.798Z,20.50
2018-03-23T12:13:16.612Z,20.33
2018-03-23T12:15:50.252Z,23.43
2018-03-23T12:18:23.833Z,21.33
2018-03-23T12:20:57.410Z,21.93
2018-03-23T12:23:31.112Z,19.43
2018-03-23T12:26:04.768Z,22.63
2018-03-23T12:28:38.563Z,20.93
2018-03-23T12:31:12.187Z,21.33
2018-03-23T12:33:45.950Z,27.17
2018-03-23T12:36:19.623Z,24.77
2018-03-23T12:38:53.371Z,23.30
2018-03-23T12:41:27.154Z,22.67
2018-03-23T12:44:00.952Z,102.60
2018-03-23T12:46:34.597Z,115.23
2018-03-23T12:49:08.250Z,52.57
2018-03-23T12:51:41.866Z,24.27
2018-03-23T12:54:15.519Z,181.87
2018-03-23T12:59:56.422Z,26.87
2018-03-23T13:02:30.126Z,181.20
2018-03-23T13:05:03.957Z,33.10
2018-03-23T13:07:37.640Z,38.27
2018-03-23T13:10:11.382Z,89.87
2018-03-23T13:12:45.065Z,32.40
2018-03-23T13:15:18.666Z,29.70
2018-03-23T13:17:52.407Z,156.30
2018-03-23T13:20:25.990Z,53.67
2018-03-23T13:22:59.712Z,175.53
2018-03-23T13:25:33.574Z,125.67
2018-03-23T13:28:07.406Z,24.97
2018-03-23T13:30:41.076Z,119.33
2018-03-23T13:33:14.902Z,36.03
2018-03-23T13:35:48.550Z,95.77
2018-03-23T13:38:22.142Z,21.33
2018-03-23T13:40:55.700Z,19.53
2018-03-23T13:43:29.276Z,51.03
2018-03-23T13:46:02.824Z,34.97
2018-03-23T13:48:36.443Z,77.23
2018-03-23T13:51:10.247Z,74.80
2018-03-23T13:53:43.851Z,26.70
2018-03-23T13:56:17.658Z,21.07
2018-03-23T13:58:56.936Z,43.53
2018-03-23T14:01:36.471Z,28.10
2018-03-23T14:04:10.207Z,28.67
2018-03-23T14:06:43.778Z,31.93
2018-03-23T14:09:17.451Z,50.43
2018-03-23T14:11:51.239Z,37.77
2018-03-23T14:14:24.802Z,50.00
2018-03-23T14:16:58.520Z,24.80
2018-03-23T14:19:32.224Z,53.70
2018-03-23T14:22:05.787Z,22.93
2018-03-23T14:24:39.314Z,22.80
2018-03-23T14:27:12.988Z,26.57
2018-03-23T14:29:46.555Z,28.37
2018-03-23T14:32:20.241Z,23.93
2018-03-23T14:34:53.978Z,20.97
2018-03-23T14:37:27.555Z,21.33
2018-03-23T14:40:01.260Z,24.70
2018-03-23T14:42:35.061Z,25.67
2018-03-23T14:45:08.774Z,27.90
2018-03-23T14:47:42.343Z,19.57
2018-03-23T14:50:16.058Z,23.30
2018-03-23T14:52:49.718Z,17.37
2018-03-23T14:55:23.347Z,17.97
2018-03-23T14:57:56.987Z,19.37
2018-03-23T15:00:30.647Z,19.87
2018-03-23T15:03:04.271Z,21.10
2018-03-23T15:05:37.967Z,16.07
2018-03-23T15:08:11.836Z,15.43
2018-03-23T15:10:45.469Z,15.03
2018-03-23T15:13:19.313Z,18.27
2018-03-23T15:15:52.892Z,17.53
2018-03-23T15:18:26.611Z,17.83
2018-03-23T15:21:00.262Z,14.57
2018-03-23T15:23:33.863Z,16.80
2018-03-23T15:26:07.442Z,17.20
2018-03-23T15:28:41.094Z,18.37
2018-03-23T15:31:14.779Z,20.13
2018-03-23T15:33:48.390Z,15.77
2018-03-23T15:36:22.239Z,17.10
2018-03-23T15:38:55.838Z,13.33
2018-03-23T15:41:29.645Z,13.93
2018-03-23T15:44:03.290Z,14.07
2018-03-23T15:46:36.861Z,17.47
2018-03-23T15:49:10.614Z,13.67
2018-03-23T15:51:44.190Z,12.27
2018-03-23T15:54:17.779Z,16.17
2018-03-23T15:56:51.507Z,11.53
2018-03-23T15:59:25.408Z,13.07
2018-03-23T16:01:59.081Z,11.87
2018-03-23T16:04:32.719Z,14.07
2018-03-23T16:07:06.331Z,16.40
2018-03-23T16:09:39.862Z,11.80
2018-03-23T16:12:13.595Z,18.27
2018-03-23T16:14:47.237Z,11.53
2018-03-23T16:17:20.937Z,12.23
2018-03-23T16:19:54.526Z,14.57
2018-03-23T16:22:28.116Z,11.70
2018-03-23T16:25:01.735Z,13.97
2018-03-23T16:27:35.266Z,12.70
2018-03-23T16:30:08.879Z,13.50
2018-03-23T16:32:42.571Z,15.97
2018-03-23T16:35:16.343Z,17.30
2018-03-23T16:37:49.968Z,16.57
2018-03-23T16:40:23.591Z,16.87
2018-03-23T16:42:57.245Z,35.93
2018-03-23T16:45:31.070Z,27.10
2018-03-23T16:48:04.735Z,14.47
2018-03-23T16:50:38.278Z,14.87
2018-03-23T16:53:12.219Z,17.33
2018-03-23T16:55:45.866Z,22.47
2018-03-23T16:58:19.587Z,23.00
2018-03-23T17:00:53.490Z,13.53
2018-03-23T17:03:27.312Z,16.23
2018-03-23T17:06:20.349Z,17.53
2018-03-23T17:08:54.094Z,18.90
2018-03-23T17:11:27.775Z,20.17
2018-03-23T17:14:01.435Z,22.10
2018-03-23T17:16:35.030Z,17.90
2018-03-23T17:19:08.799Z,16.60
2018-03-23T17:21:42.491Z,17.93
2018-03-23T17:24:16.297Z,20.20
2018-03-23T17:26:50.047Z,18.10
2018-03-23T17:29:23.680Z,24.37
2018-03-23T17:31:57.522Z,22.97
2018-03-23T17:34:31.428Z,19.63
2018-03-23T17:37:05.195Z,24.80
2018-03-23T17:39:38.868Z,23.73
2018-03-23T17:42:12.506Z,29.10
2018-03-23T17:44:46.142Z,22.87
2018-03-23T17:47:19.834Z,27.67
2018-03-23T17:49:53.386Z,32.23
2018-03-23T17:52:26.970Z,23.83
2018-03-23T17:55:01.402Z,60.33
2018-03-23T17:57:35.190Z,29.07
2018-03-23T18:00:09.075Z,38.20
2018-03-23T18:02:42.759Z,528.47
2018-03-23T18:05:16.591Z,173.80
2018-03-23T18:07:50.354Z,86.47
2018-03-23T18:10:24.158Z,30.07
2018-03-23T18:12:57.851Z,29.87
2018-03-23T18:15:31.751Z,25.57
2018-03-23T18:18:05.380Z,30.13
2018-03-23T18:20:38.999Z,31.53
2018-03-23T18:23:12.578Z,25.63
2018-03-23T18:25:46.107Z,29.30
2018-03-23T18:28:19.702Z,30.37
2018-03-23T18:30:53.315Z,31.43
2018-03-23T18:33:27.037Z,26.03
2018-03-23T18:36:00.815Z,29.83
2018-03-23T18:38:34.309Z,25.17
2018-03-23T18:41:07.963Z,25.43
2018-03-23T18:43:41.620Z,23.37
2018-03-23T18:46:15.691Z,29.73
2018-03-23T18:48:49.322Z,21.67
2018-03-23T18:51:22.919Z,25.53
2018-03-23T18:53:56.471Z,28.23
2018-03-23T18:56:30.183Z,23.33
2018-03-23T18:59:03.805Z,26.27
2018-03-23T19:01:37.444Z,21.93
2018-03-23T19:04:11.043Z,22.80
2018-03-23T19:06:44.694Z,27.43
2018-03-23T19:09:18.321Z,24.93
2018-03-23T19:11:51.975Z,23.50
2018-03-23T19:14:25.662Z,25.37
2018-03-23T19:16:59.299Z,26.63
2018-03-23T19:19:33.047Z,26.73
2018-03-23T19:22:06.819Z,22.87
2018-03-23T19:24:40.467Z,25.57
2018-03-23T19:27:14.018Z,22.80
2018-03-23T19:29:47.652Z,21.77
2018-03-23T19:32:21.349Z,29.03
2018-03-23T19:34:55.192Z,40.97
2018-03-23T19:37:28.773Z,27.83
2018-03-23T19:40:10.522Z,23.20
2018-03-23T19:42:44.078Z,23.73
2018-03-23T19:45:17.726Z,21.23
2018-03-23T19:47:51.432Z,23.03
2018-03-23T19:50:25.115Z,24.07
2018-03-23T19:52:58.838Z,25.70
2018-03-23T19:55:32.435Z,23.67
2018-03-23T19:58:06.055Z,23.50
2018-03-23T20:00:39.738Z,22.30
2018-03-23T20:03:13.352Z,21.87
2018-03-23T20:05:54.867Z,20.77
2018-03-23T20:08:28.502Z,26.67
2018-03-23T20:11:02.168Z,21.50
2018-03-23T20:13:35.995Z,20.47
2018-03-23T20:16:09.548Z,22.27
2018-03-23T20:18:43.199Z,20.27
2018-03-23T20:21:16.851Z,52.17
2018-03-23T20:23:50.410Z,37.13
2018-03-23T20:26:23.931Z,30.50
2018-03-23T20:28:57.627Z,22.30
2018-03-23T20:31:37.004Z,21.77
2018-03-23T20:34:10.675Z,22.33
2018-03-23T20:36:44.423Z,20.93
2018-03-23T20:39:18.099Z,20.13
2018-03-23T20:41:51.731Z,24.87
2018-03-23T20:44:25.371Z,21.83
2018-03-23T20:47:01.018Z,27.23
2018-03-23T20:49:34.527Z,25.13
2018-03-23T20:52:08.179Z,21.50
2018-03-23T20:54:41.820Z,23.90
2018-03-23T20:57:15.367Z,23.10
2018-03-23T20:59:48.883Z,23.50
2018-03-23T21:02:22.451Z,23.67
2018-03-23T21:04:56.066Z,22.07
2018-03-23T21:07:29.691Z,21.20
2018-03-23T21:10:03.352Z,25.77
2018-03-23T21:12:37.074Z,20.63
2018-03-23T21:15:10.719Z,21.93
2018-03-23T21:17:44.398Z,21.73
2018-03-23T21:20:17.878Z,26.83
2018-03-23T21:22:51.463Z,24.20
2018-03-23T21:25:25.204Z,20.13
2018-03-23T21:27:58.930Z,23.93
2018-03-23T21:30:32.419Z,25.53
2018-03-23T21:33:06.070Z,21.10
2018-03-23T21:35:39.607Z,24.23
2018-03-23T21:38:13.263Z,24.80
2018-03-23T21:40:46.879Z,25.93
2018-03-23T21:43:20.511Z,24.00
2018-03-23T21:45:54.345Z,24.30
2018-03-23T21:48:27.988Z,27.93
2018-03-23T21:51:01.555Z,26.90
2018-03-23T21:53:35.306Z,24.37
2018-03-23T21:56:09.139Z,26.47
2018-03-23T21:58:42.694Z,22.30
2018-03-23T22:01:16.337Z,24.03
2018-03-23T22:03:50.035Z,26.27
2018-03-23T22:06:23.579Z,23.00
2018-03-23T22:08:57.203Z,26.43
2018-03-23T22:11:30.959Z,23.90
2018-03-23T22:14:04.591Z,22.60
2018-03-23T22:16:38.282Z,26.13
2018-03-23T22:19:11.886Z,26.47
2018-03-23T22:21:45.637Z,28.07
2018-03-23T22:24:19.445Z,26.83
2018-03-23T22:26:53.043Z,23.07
2018-03-23T22:29:26.722Z,21.60
2018-03-23T22:32:00.450Z,22.83
2018-03-23T22:34:34.030Z,24.73
2018-03-23T22:37:07.670Z,20.17
2018-03-23T22:39:41.221Z,21.37
2018-03-23T22:42:14.872Z,20.87
2018-03-23T22:44:48.597Z,25.63
2018-03-23T22:47:22.166Z,23.23
2018-03-23T22:49:55.827Z,27.43
2018-03-23T22:52:29.444Z,22.90
2018-03-23T22:55:03.221Z,23.87
2018-03-23T22:57:36.910Z,24.40
2018-03-23T23:00:10.558Z,22.63
2018-03-23T23:02:44.232Z,26.10
2018-03-23T23:05:17.758Z,28.07
2018-03-23T23:07:51.441Z,24.40
2018-03-23T23:10:25.014Z,33.63
2018-03-23T23:12:58.745Z,33.60
2018-03-23T23:15:32.280Z,30.43
2018-03-23T23:18:05.804Z,29.07
2018-03-23T23:20:39.549Z,37.03
2018-03-23T23:23:13.474Z,27.93
2018-03-23T23:25:47.106Z,30.07
2018-03-23T23:28:20.621Z,27.03
2018-03-23T23:30:54.181Z,25.67
2018-03-23T23:33:27.837Z,29.00
2018-03-23T23:36:01.574Z,23.40
2018-03-23T23:38:35.237Z,25.23
2018-03-23T23:41:08.762Z,26.33
2018-03-23T23:43:42.700Z,27.47
2018-03-23T23:46:16.222Z,20.93
2018-03-23T23:48:49.909Z,26.33
2018-03-23T23:51:23.519Z,24.80
2018-03-23T23:53:57.158Z,24.87
2018-03-23T23:56:30.834Z,21.07
2018-03-23T23:59:04.513Z,22.97
